Time;durP1;ratioP1;P1;durP2;ratioP2;P2;SDS_P1;SDS_P2;PMS_P1;PMS_P2;Temp;Humidity;BMP_temperature;BMP_pressure;BME280_temperature;BME280_humidity;BME280_pressure;Samples;Min_cycle;Max_cycle;Signal;HPM_P1;HPM_P2
2022/12/31 00:00:59;;;;;;;;;;;;;;;9.99;100.00;99597.91;4904360;29;19930;-81
2022/12/31 00:03:25;;;;;;;;;;;;;;;10.02;100.00;99596.78;4875093;29;19978;-82
2022/12/31 00:05:52;;;;;;;;;;;;;;;10.06;100.00;99600.03;4910391;29;19923;-86
2022/12/31 00:08:21;;;;;;;;;;;;;;;10.07;100.00;99618.44;4898579;29;19923;-82
2022/12/31 00:10:48;;;;;;;;;;;;;;;10.08;100.00;99620.13;4885261;29;19974;-81
2022/12/31 00:13:15;;;;;;;;;;;;;;;10.10;100.00;99607.56;4897919;29;19979;-82
2022/12/31 00:15:42;;;;;;;;;;;;;;;10.17;100.00;99629.91;4872089;29;19927;-83
2022/12/31 00:18:12;;;;;;;;;;;;;;;10.20;100.00;99627.00;4867032;29;19927;-85
2022/12/31 00:20:41;;;;;;;;;;;;;;;10.25;100.00;99636.34;4887095;29;19931;-85
2022/12/31 00:23:09;;;;;;;;;;;;;;;10.24;100.00;99624.06;4911154;29;19923;-81
2022/12/31 00:25:35;;;;;;;;;;;;;;;10.25;100.00;99625.72;4887760;29;19923;-86
2022/12/31 00:28:03;;;;;;;;;;;;;;;10.24;100.00;99621.41;4906494;29;20660;-85
2022/12/31 00:30:29;;;;;;;;;;;;;;;10.24;100.00;99618.75;4904705;29;19962;-86
2022/12/31 00:32:56;;;;;;;;;;;;;;;10.24;100.00;99621.41;4879020;29;19934;-86
2022/12/31 00:35:23;;;;;;;;;;;;;;;10.22;100.00;99627.66;4895330;29;20425;-87
2022/12/31 00:37:58;;;;;;;;;;;;;;;10.24;100.00;99630.19;4824338;29;19930;-94
2022/12/31 00:40:25;;;;;;;;;;;;;;;10.24;100.00;99619.59;4832741;29;19924;-94
2022/12/31 00:42:51;;;;;;;;;;;;;;;10.24;100.00;99626.72;4830812;29;20303;-95
2022/12/31 00:45:18;;;;;;;;;;;;;;;10.26;100.00;99624.75;4874631;29;20390;-95
2022/12/31 00:47:44;;;;;;;;;;;;;;;10.29;100.00;99630.66;4829201;29;19931;-93
2022/12/31 00:50:11;;;;;;;;;;;;;;;10.28;100.00;99639.59;4847977;29;19924;-94
2022/12/31 00:52:38;;;;;;;;;;;;;;;10.30;100.00;99636.78;4841260;29;19923;-94
2022/12/31 00:55:05;;;;;;;;;;;;;;;10.33;100.00;99640.03;4848299;29;19927;-94
2022/12/31 00:57:31;;;;;;;;;;;;;;;10.32;100.00;99640.16;4829539;29;19927;-95
2022/12/31 00:59:58;;;;;;;;;;;;;;;10.32;100.00;99640.16;4822031;29;19924;-94
2022/12/31 01:02:24;;;;;;;;;;;;;;;10.32;100.00;99637.50;4801735;29;19931;-94
2022/12/31 01:04:51;;;;;;;;;;;;;;;10.34;100.00;99640.84;4829140;29;19927;-94
2022/12/31 01:07:18;;;;;;;;;;;;;;;10.35;100.00;99646.00;4842363;29;20041;-94
2022/12/31 01:09:45;;;;;;;;;;;;;;;10.42;100.00;99646.31;4863372;29;19923;-95
2022/12/31 01:12:11;;;;;;;;;;;;;;;10.40;100.00;99642.94;4913821;29;20279;-94
2022/12/31 01:14:38;;;;;;;;;;;;;;;10.40;100.00;99658.88;4926909;29;19986;-95
2022/12/31 01:17:04;;;;;;;;;;;;;;;10.41;100.00;99661.41;4881782;29;19923;-93
2022/12/31 01:19:32;;;;;;;;;;;;;;;10.45;100.00;99669.06;4877513;29;20363;-94
2022/12/31 01:21:59;;;;;;;;;;;;;;;10.46;100.00;99666.28;4865158;29;19927;-94
2022/12/31 01:24:26;;;;;;;;;;;;;;;10.49;100.00;99665.19;4881400;29;20017;-94
2022/12/31 01:26:56;;;;;;;;;;;;;;;10.56;100.00;99661.81;4879906;29;19922;-94
2022/12/31 01:29:24;;;;;;;;;;;;;;;10.56;100.00;99667.13;4910333;29;19923;-94
2022/12/31 01:31:51;;;;;;;;;;;;;;;10.57;100.00;99665.31;4880064;29;19956;-95
2022/12/31 01:34:17;;;;;;;;;;;;;;;10.56;100.00;99675.09;4880251;29;19946;-95
2022/12/31 01:36:44;;;;;;;;;;;;;;;10.58;100.00;99683.78;4909423;29;20371;-93
2022/12/31 01:39:11;;;;;;;;;;;;;;;10.58;100.00;99675.81;4877255;29;20395;-95
2022/12/31 01:41:39;;;;;;;;;;;;;;;10.60;100.00;99684.44;4860552;29;19974;-94
2022/12/31 01:44:09;;;;;;;;;;;;;;;10.62;100.00;99679.84;4876203;29;20415;-94
2022/12/31 01:46:50;;;;;;;;;;;;;;;10.63;100.00;99675.34;4906329;29;20010;-94
2022/12/31 01:49:29;;;;;;;;;;;;;;;10.68;100.00;99696.19;4857464;29;19924;-93
2022/12/31 01:52:16;;;;;;;;;;;;;;;10.66;100.00;99685.72;4898891;29;19958;-95
2022/12/31 01:54:43;;;;;;;;;;;;;;;10.69;100.00;99692.56;4871278;29;20586;-87
2022/12/31 01:57:11;;;;;;;;;;;;;;;10.69;100.00;99689.91;4866934;29;19930;-81
2022/12/31 01:59:37;;;;;;;;;;;;;;;10.68;100.00;99693.53;4893538;29;19931;-92
2022/12/31 02:02:04;;;;;;;;;;;;;;;10.70;100.00;99699.53;4900245;29;19924;-85
2022/12/31 02:04:31;;;;;;;;;;;;;;;10.68;100.00;99677.59;4904634;29;19923;-84
2022/12/31 02:07:04;;;;;;;;;;;;;;;10.68;100.00;99677.59;4909897;29;20363;-93
2022/12/31 02:09:31;;;;;;;;;;;;;;;10.69;100.00;99693.41;4899436;29;19923;-87
2022/12/31 02:11:59;;;;;;;;;;;;;;;10.73;100.00;99688.63;4890714;29;19930;-94
2022/12/31 02:14:32;;;;;;;;;;;;;;;10.75;100.00;99689.34;4877976;29;19922;-82
2022/12/31 02:17:10;;;;;;;;;;;;;;;10.76;100.00;99688.34;4875110;29;19927;-94
2022/12/31 02:19:55;;;;;;;;;;;;;;;10.76;100.00;99701.63;4873804;29;19931;-93
2022/12/31 02:22:34;;;;;;;;;;;;;;;10.76;100.00;99694.53;4862857;29;19923;-94
2022/12/31 02:25:05;;;;;;;;;;;;;;;10.77;100.00;99696.19;4908757;29;19958;-93
2022/12/31 02:27:40;;;;;;;;;;;;;;;10.78;100.00;99702.34;4890391;29;19923;-94
2022/12/31 02:30:17;;;;;;;;;;;;;;;10.78;100.00;99707.66;4897053;29;19930;-94
2022/12/31 02:32:46;;;;;;;;;;;;;;;10.80;100.00;99705.69;4875793;29;19923;-94
2022/12/31 02:35:13;;;;;;;;;;;;;;;10.81;100.00;99704.72;4898612;29;19931;-85
2022/12/31 02:37:40;;;;;;;;;;;;;;;10.80;100.00;99703.03;4906861;29;20296;-85
2022/12/31 02:40:07;;;;;;;;;;;;;;;10.82;100.00;99693.13;4888795;29;20017;-85
2022/12/31 02:42:34;;;;;;;;;;;;;;;10.81;100.00;99697.59;4899855;29;19923;-85
2022/12/31 02:45:00;;;;;;;;;;;;;;;10.82;100.00;99703.75;4915039;29;19938;-85
2022/12/31 02:47:44;;;;;;;;;;;;;;;10.83;100.00;99705.41;4912553;29;20320;-85
2022/12/31 02:50:23;;;;;;;;;;;;;;;10.83;100.00;99697.44;4847576;29;20822;-85
2022/12/31 02:52:53;;;;;;;;;;;;;;;10.85;100.00;99704.28;4851404;29;19923;-85
2022/12/31 02:55:49;;;;;;;;;;;;;;;10.86;100.00;99699.81;4902987;29;19959;-85
2022/12/31 02:58:19;;;;;;;;;;;;;;;10.86;100.00;99705.97;4842026;29;20484;-84
2022/12/31 03:03:33;;;;;;;;;;;;;;;10.89;100.00;99707.53;4877154;29;19922;-85
2022/12/31 03:06:00;;;;;;;;;;;;;;;10.90;100.00;99700.38;4885715;29;20010;-84
2022/12/31 03:08:27;;;;;;;;;;;;;;;10.92;100.00;99701.09;4873180;29;20367;-85
2022/12/31 03:10:55;;;;;;;;;;;;;;;10.93;100.00;99698.28;4892869;29;19927;-85
2022/12/31 03:13:22;;;;;;;;;;;;;;;10.94;100.00;99705.28;4868915;29;19927;-84
2022/12/31 03:15:49;;;;;;;;;;;;;;;10.98;100.00;99713.78;4915656;29;19929;-85
2022/12/31 03:18:17;;;;;;;;;;;;;;;10.97;100.00;99718.28;4914509;29;19999;-85
2022/12/31 03:23:40;;;;;;;;;;;;;;;11.02;100.00;99701.91;4875897;29;19927;-85
2022/12/31 03:26:10;;;;;;;;;;;;;;;11.00;100.00;99694.06;4894990;29;20287;-84
2022/12/31 03:28:40;;;;;;;;;;;;;;;11.02;100.00;99696.59;4886274;29;20272;-85
2022/12/31 03:31:07;;;;;;;;;;;;;;;11.03;100.00;99708.91;4916776;29;19931;-85
2022/12/31 03:33:35;;;;;;;;;;;;;;;11.04;100.00;99710.56;4879854;29;19923;-85
2022/12/31 03:36:03;;;;;;;;;;;;;;;11.05;100.00;99721.06;4895793;29;19928;-85
2022/12/31 03:38:29;;;;;;;;;;;;;;;11.05;100.00;99730.84;4904578;29;20363;-85
2022/12/31 03:40:57;;;;;;;;;;;;;;;11.05;100.00;99722.88;4876042;29;19926;-85
2022/12/31 03:43:24;;;;;;;;;;;;;;;11.07;100.00;99712.97;4915703;29;20443;-85
2022/12/31 03:45:51;;;;;;;;;;;;;;;11.08;100.00;99704.81;4904257;29;19959;-86
2022/12/31 03:48:18;;;;;;;;;;;;;;;11.11;100.00;99706.34;4904628;29;19923;-85
2022/12/31 03:50:45;;;;;;;;;;;;;;;11.11;100.00;99705.53;4878298;29;19927;-84
2022/12/31 03:53:11;;;;;;;;;;;;;;;11.12;100.00;99702.75;4919834;29;19970;-86
2022/12/31 03:55:38;;;;;;;;;;;;;;;11.14;100.00;99702.56;4864939;29;20405;-86
2022/12/31 03:58:05;;;;;;;;;;;;;;;11.15;100.00;99704.28;4918681;29;19930;-86
2022/12/31 04:00:31;;;;;;;;;;;;;;;11.16;100.00;99705.94;4903806;29;19923;-84
2022/12/31 04:02:58;;;;;;;;;;;;;;;11.17;100.00;99702.28;4902951;29;19923;-85
2022/12/31 04:05:24;;;;;;;;;;;;;;;11.17;100.00;99710.25;4892451;29;20382;-85
2022/12/31 04:07:51;;;;;;;;;;;;;;;11.16;100.00;99706.78;4912979;29;19931;-85
2022/12/31 04:10:18;;;;;;;;;;;;;;;11.15;100.00;99705.09;4900292;29;20786;-85
2022/12/31 04:12:44;;;;;;;;;;;;;;;11.16;100.00;99709.44;4896397;29;20017;-85
2022/12/31 04:15:16;;;;;;;;;;;;;;;11.18;100.00;99709.28;4889443;29;20626;-85
2022/12/31 04:17:42;;;;;;;;;;;;;;;11.20;100.00;99715.31;4877110;29;20026;-84
2022/12/31 04:20:09;;;;;;;;;;;;;;;11.22;100.00;99714.19;4888845;29;20343;-84
2022/12/31 04:22:35;;;;;;;;;;;;;;;11.24;100.00;99716.69;4875883;29;19927;-85
2022/12/31 04:25:02;;;;;;;;;;;;;;;11.25;100.00;99718.38;4886113;29;19931;-85
2022/12/31 04:27:29;;;;;;;;;;;;;;;11.27;100.00;99727.88;4885871;29;20489;-84
2022/12/31 04:29:55;;;;;;;;;;;;;;;11.28;100.00;99723.41;4880921;29;19970;-85
2022/12/31 04:32:22;;;;;;;;;;;;;;;11.30;100.00;99719.63;4918945;29;20486;-85
2022/12/31 04:34:49;;;;;;;;;;;;;;;11.31;100.00;99725.78;4920069;29;20394;-85
2022/12/31 04:37:15;;;;;;;;;;;;;;;11.33;100.00;99730.97;4897823;29;19923;-86
2022/12/31 04:39:42;;;;;;;;;;;;;;;11.34;100.00;99729.97;4893508;29;19994;-81
2022/12/31 04:42:08;;;;;;;;;;;;;;;11.35;100.00;99735.16;4909673;29;19929;-86
2022/12/31 04:44:35;;;;;;;;;;;;;;;11.40;100.00;99740.03;4906253;29;20379;-82
2022/12/31 04:47:02;;;;;;;;;;;;;;;11.41;100.00;99747.84;4893906;29;19931;-81
2022/12/31 04:49:28;;;;;;;;;;;;;;;11.41;100.00;99745.19;4905215;29;20299;-81
2022/12/31 04:51:55;;;;;;;;;;;;;;;11.43;100.00;99735.25;4885023;29;20316;-93
2022/12/31 04:54:21;;;;;;;;;;;;;;;11.47;100.00;99741.13;4862071;29;19930;-93
2022/12/31 04:56:49;;;;;;;;;;;;;;;11.50;100.00;99744.34;4919097;29;19927;-93
2022/12/31 04:59:19;;;;;;;;;;;;;;;11.56;100.00;99739.44;4898318;29;20491;-94
2022/12/31 05:01:45;;;;;;;;;;;;;;;11.58;100.00;99750.78;4909853;29;19927;-93
2022/12/31 05:04:13;;;;;;;;;;;;;;;11.59;100.00;99755.09;4883746;29;20566;-82
2022/12/31 05:06:40;;;;;;;;;;;;;;;11.59;100.00;99753.28;4886590;29;19927;-82
2022/12/31 05:09:07;;;;;;;;;;;;;;;11.60;100.00;99748.78;4905491;29;19923;-81
2022/12/31 05:11:34;;;;;;;;;;;;;;;11.61;100.00;99750.47;4869656;29;20394;-86
2022/12/31 05:14:01;;;;;;;;;;;;;;;11.61;100.00;99766.44;4885862;29;20327;-86
2022/12/31 05:16:27;;;;;;;;;;;;;;;11.63;100.00;99764.47;4872063;29;20260;-85
2022/12/31 05:18:54;;;;;;;;;;;;;;;11.62;100.00;99760.13;4886186;29;19931;-82
2022/12/31 05:21:24;;;;;;;;;;;;;;;11.64;100.00;99760.81;4847154;29;19935;-86
2022/12/31 05:23:51;;;;;;;;;;;;;;;11.65;100.00;99770.47;4844425;29;19927;-83
2022/12/31 05:26:18;;;;;;;;;;;;;;;11.66;100.00;99767.69;4822737;29;20271;-94
2022/12/31 05:28:44;;;;;;;;;;;;;;;11.67;100.00;99776.47;4825050;29;20428;-95
2022/12/31 05:31:11;;;;;;;;;;;;;;;11.69;100.00;99763.88;4834824;29;19951;-82
2022/12/31 05:33:38;;;;;;;;;;;;;;;11.71;100.00;99777.88;4850881;29;20261;-81
2022/12/31 05:36:04;;;;;;;;;;;;;;;11.72;100.00;99780.38;4826747;29;20265;-85
2022/12/31 05:38:31;;;;;;;;;;;;;;;11.71;100.00;99770.75;4847886;29;19936;-86
2022/12/31 05:41:02;;;;;;;;;;;;;;;11.71;100.00;99784.03;4845388;29;19924;-86
2022/12/31 05:43:31;;;;;;;;;;;;;;;11.76;100.00;99788.09;4822506;29;19976;-93
2022/12/31 05:45:59;;;;;;;;;;;;;;;11.77;100.00;99790.59;4833075;29;19923;-93
2022/12/31 05:48:25;;;;;;;;;;;;;;;11.82;100.00;99784.84;4864113;29;20009;-92
2022/12/31 05:50:52;;;;;;;;;;;;;;;11.80;100.00;99774.34;4910007;29;20750;-93
2022/12/31 05:53:19;;;;;;;;;;;;;;;11.81;100.00;99784.00;4926740;29;19930;-93
2022/12/31 05:55:46;;;;;;;;;;;;;;;11.82;100.00;99780.34;4893152;29;19923;-92
2022/12/31 05:58:13;;;;;;;;;;;;;;;11.82;100.00;99777.69;4917972;29;20426;-87
2022/12/31 06:00:40;;;;;;;;;;;;;;;11.82;100.00;99777.69;4908635;29;19978;-82
2022/12/31 06:03:07;;;;;;;;;;;;;;;11.85;100.00;99784.56;4880959;29;19924;-86
2022/12/31 06:05:34;;;;;;;;;;;;;;;11.92;100.00;99791.84;4917037;29;19961;-93
2022/12/31 06:08:01;;;;;;;;;;;;;;;11.94;100.00;99786.38;4879558;29;19927;-86
2022/12/31 06:10:27;;;;;;;;;;;;;;;11.97;100.00;99798.56;4886643;29;20614;-82
2022/12/31 06:12:55;;;;;;;;;;;;;;;11.96;100.00;99797.72;4914143;29;20348;-94
2022/12/31 06:15:21;;;;;;;;;;;;;;;11.97;100.00;99803.88;4903302;29;20450;-86
2022/12/31 06:17:48;;;;;;;;;;;;;;;11.98;100.00;99803.72;4902908;29;19926;-86
2022/12/31 06:20:15;;;;;;;;;;;;;;;11.97;100.00;99798.56;4899305;29;19927;-87
2022/12/31 06:22:41;;;;;;;;;;;;;;;11.96;100.00;99805.72;4891931;29;19923;-87
2022/12/31 06:25:08;;;;;;;;;;;;;;;11.98;100.00;99811.69;4858199;29;19930;-82
2022/12/31 06:27:34;;;;;;;;;;;;;;;11.98;100.00;99814.38;4853897;29;20467;-87
2022/12/31 06:30:01;;;;;;;;;;;;;;;11.98;100.00;99819.69;4867738;29;20308;-85
2022/12/31 06:32:28;;;;;;;;;;;;;;;12.00;100.00;99816.91;4876756;29;20085;-85
2022/12/31 06:34:55;;;;;;;;;;;;;;;12.05;100.00;99822.63;4847345;29;19975;-85
2022/12/31 06:37:21;;;;;;;;;;;;;;;12.05;100.00;99825.28;4847813;29;19923;-82
2022/12/31 06:39:49;;;;;;;;;;;;;;;12.04;100.00;99804.97;4850504;29;19931;-81
2022/12/31 06:42:19;;;;;;;;;;;;;;;12.12;100.00;99827.22;4843219;29;19979;-81
2022/12/31 06:44:45;;;;;;;;;;;;;;;12.12;100.00;99827.22;4869461;29;19923;-82
2022/12/31 06:47:14;;;;;;;;;;;;;;;12.11;100.00;99830.00;4885210;29;19933;-82
2022/12/31 06:49:41;;;;;;;;;;;;;;;12.09;100.00;99832.84;4874972;29;19931;-84
2022/12/31 06:52:07;;;;;;;;;;;;;;;12.08;100.00;99839.13;4854766;29;19927;-82
2022/12/31 06:54:35;;;;;;;;;;;;;;;12.10;100.00;99837.16;4858269;29;19923;-82
2022/12/31 06:57:04;;;;;;;;;;;;;;;12.11;100.00;99838.84;4856041;29;19930;-85
2022/12/31 06:59:32;;;;;;;;;;;;;;;12.09;100.00;99840.00;4850201;29;20098;-85
2022/12/31 07:02:17;;;;;;;;;;;;;;;12.08;100.00;99841.78;4860877;29;19923;-85
2022/12/31 07:05:02;;;;;;;;;;;;;;;12.08;100.00;99841.78;4859559;29;20475;-86
2022/12/31 07:07:44;;;;;;;;;;;;;;;12.11;100.00;99833.53;4891025;29;20358;-86
2022/12/31 07:10:30;;;;;;;;;;;;;;;12.13;100.00;99834.19;4869618;29;19927;-87
2022/12/31 07:13:08;;;;;;;;;;;;;;;12.12;100.00;99835.19;4868341;29;20382;-81
2022/12/31 07:15:53;;;;;;;;;;;;;;;12.13;100.00;99836.88;4892470;29;19999;-85
2022/12/31 07:18:23;;;;;;;;;;;;;;;12.13;100.00;99838.69;4894922;29;19923;-86
2022/12/31 07:20:49;;;;;;;;;;;;;;;12.11;100.00;99852.16;4906851;29;19923;-85
2022/12/31 07:23:16;;;;;;;;;;;;;;;12.10;100.00;99850.47;4873148;29;19930;-93
2022/12/31 07:25:44;;;;;;;;;;;;;;;12.11;100.00;99857.50;4884562;29;19923;-94
2022/12/31 07:28:19;;;;;;;;;;;;;;;12.11;100.00;99856.63;4883773;29;20018;-94
2022/12/31 07:30:48;;;;;;;;;;;;;;;12.11;100.00;99856.63;4878395;29;19923;-84
2022/12/31 07:33:21;;;;;;;;;;;;;;;12.11;100.00;99861.94;4894328;29;19930;-85
2022/12/31 07:36:06;;;;;;;;;;;;;;;12.12;100.00;99855.66;4903495;29;19927;-85
2022/12/31 07:38:48;;;;;;;;;;;;;;;12.12;100.00;99867.13;4879456;29;20339;-82
2022/12/31 07:41:16;;;;;;;;;;;;;;;12.13;100.00;99863.47;4904508;29;20018;-87
2022/12/31 07:44:03;;;;;;;;;;;;;;;12.13;100.00;99868.81;4897674;29;19922;-92
2022/12/31 07:46:32;;;;;;;;;;;;;;;12.15;100.00;99866.00;4879199;29;20430;-85
2022/12/31 07:48:59;;;;;;;;;;;;;;;12.15;100.00;99874.00;4895277;29;20410;-85
2022/12/31 07:51:26;;;;;;;;;;;;;;;12.16;100.00;99875.66;4893813;29;19976;-85
2022/12/31 07:53:52;;;;;;;;;;;;;;;12.16;100.00;99875.66;4877995;29;20283;-85
2022/12/31 07:56:19;;;;;;;;;;;;;;;12.15;100.00;99866.84;4918999;29;19965;-85
2022/12/31 07:58:48;;;;;;;;;;;;;;;12.18;100.00;99873.69;4904860;29;19922;-85
2022/12/31 08:01:15;;;;;;;;;;;;;;;12.19;100.00;99888.72;4895641;29;19968;-85
2022/12/31 08:03:47;;;;;;;;;;;;;;;12.20;100.00;99886.88;4893393;29;20013;-85
2022/12/31 08:06:18;;;;;;;;;;;;;;;12.19;100.00;99888.72;4923102;29;20362;-86
2022/12/31 08:09:03;;;;;;;;;;;;;;;12.23;100.00;99899.88;4911740;29;20018;-85
2022/12/31 08:11:47;;;;;;;;;;;;;;;12.25;100.00;99903.25;4921840;28;19927;-85
2022/12/31 08:14:14;;;;;;;;;;;;;;;12.27;100.00;99898.63;4876601;29;19930;-86
2022/12/31 08:16:41;;;;;;;;;;;;;;;12.28;100.00;99909.13;4901808;29;19963;-85
2022/12/31 08:19:11;;;;;;;;;;;;;;;12.30;100.00;99909.81;4906140;29;19990;-85
2022/12/31 08:21:46;;;;;;;;;;;;;;;12.31;100.00;99911.50;4907465;29;19926;-84
2022/12/31 08:24:18;;;;;;;;;;;;;;;12.31;100.00;99902.66;4900976;29;19937;-85
2022/12/31 08:26:45;;;;;;;;;;;;;;;12.34;100.00;99908.56;4908420;29;20504;-85
2022/12/31 08:29:30;;;;;;;;;;;;;;;12.36;100.00;99901.25;4920409;29;19966;-85
2022/12/31 08:31:57;;;;;;;;;;;;;;;12.40;100.00;99916.94;4920349;29;19923;-84
2022/12/31 08:34:26;;;;;;;;;;;;;;;12.42;100.00;99917.66;4916418;29;22173;-84
2022/12/31 08:37:04;;;;;;;;;;;;;;;12.43;100.00;99911.31;4918965;29;20010;-85
2022/12/31 08:39:37;;;;;;;;;;;;;;;12.44;100.00;99924.50;4909279;29;19994;-84
2022/12/31 08:42:04;;;;;;;;;;;;;;;12.45;100.00;99933.31;4911847;29;20009;-84
2022/12/31 08:44:37;;;;;;;;;;;;;;;12.46;100.00;99927.84;4918217;29;19966;-84
2022/12/31 08:47:16;;;;;;;;;;;;;;;12.49;100.00;99926.72;4905509;29;19955;-84
2022/12/31 08:49:43;;;;;;;;;;;;;;;12.53;100.00;99925.44;4884565;29;19930;-85
2022/12/31 08:52:14;;;;;;;;;;;;;;;12.55;100.00;99926.13;4890849;29;19974;-86
2022/12/31 08:54:40;;;;;;;;;;;;;;;12.56;100.00;99944.63;4886933;29;19958;-87
2022/12/31 08:57:27;;;;;;;;;;;;;;;12.59;100.00;99927.50;4888845;29;20299;-86
2022/12/31 09:00:03;;;;;;;;;;;;;;;12.62;100.00;99937.03;4866817;29;19961;-86
2022/12/31 09:02:48;;;;;;;;;;;;;;;12.62;100.00;99945.88;4893237;29;19927;-84
2022/12/31 09:05:26;;;;;;;;;;;;;;;12.64;100.00;99943.88;4842020;29;19927;-83
2022/12/31 09:08:02;;;;;;;;;;;;;;;12.66;100.00;99944.59;4814930;29;19927;-84
2022/12/31 09:10:29;;;;;;;;;;;;;;;12.67;100.00;99940.97;4856295;29;20403;-85
2022/12/31 09:13:17;;;;;;;;;;;;;;;12.69;100.00;99946.97;4844784;29;19935;-83
2022/12/31 09:15:48;;;;;;;;;;;;;;;12.72;100.00;99951.16;4814041;29;19932;-84
2022/12/31 09:18:15;;;;;;;;;;;;;;;12.73;100.00;99953.69;4846975;29;19924;-84
2022/12/31 09:20:41;;;;;;;;;;;;;;;12.76;100.00;99964.03;4853537;29;20050;-84
2022/12/31 09:23:11;;;;;;;;;;;;;;;12.78;100.00;99955.91;4862066;29;19924;-84
2022/12/31 09:25:39;;;;;;;;;;;;;;;12.79;100.00;99954.91;4849962;29;19981;-84
2022/12/31 09:28:16;;;;;;;;;;;;;;;12.82;100.00;99959.94;4838780;29;19927;-84
2022/12/31 09:31:02;;;;;;;;;;;;;;;12.84;100.00;99962.47;4856433;29;19924;-84
2022/12/31 09:33:43;;;;;;;;;;;;;;;12.85;100.00;99959.69;4881693;29;19935;-84
2022/12/31 09:36:13;;;;;;;;;;;;;;;12.87;100.00;99954.19;4894967;29;19923;-84
2022/12/31 09:38:43;;;;;;;;;;;;;;;12.91;100.00;99952.91;4887596;29;19923;-84
2022/12/31 09:41:28;;;;;;;;;;;;;;;12.92;100.00;99951.91;4892519;29;19927;-85
2022/12/31 09:43:55;;;;;;;;;;;;;;;12.95;100.00;99955.13;4880230;29;19973;-85
2022/12/31 09:46:35;;;;;;;;;;;;;;;12.98;100.00;99956.66;4909962;29;19922;-85
2022/12/31 09:49:05;;;;;;;;;;;;;;;12.99;100.00;99961.81;4887299;29;19924;-85
2022/12/31 09:51:35;;;;;;;;;;;;;;;13.00;100.00;99952.88;4911546;29;19930;-85
2022/12/31 09:54:05;;;;;;;;;;;;;;;13.00;100.00;99970.66;4885414;29;19945;-84
2022/12/31 09:56:33;;;;;;;;;;;;;;;13.02;100.00;99966.03;4915314;29;19931;-84
2022/12/31 09:59:09;;;;;;;;;;;;;;;13.02;100.00;99968.69;4864628;29;19991;-86
2022/12/31 10:01:48;;;;;;;;;;;;;;;13.03;100.00;99970.38;4905635;29;20327;-86
2022/12/31 10:04:18;;;;;;;;;;;;;;;13.07;100.00;99971.75;4899388;29;20026;-85
2022/12/31 10:06:56;;;;;;;;;;;;;;;13.09;100.00;99967.13;4883000;29;19928;-86
2022/12/31 10:09:38;;;;;;;;;;;;;;;13.10;100.00;99966.16;4897321;29;20014;-86
2022/12/31 10:12:13;;;;;;;;;;;;;;;13.13;100.00;99973.00;4884130;29;19927;-85
2022/12/31 10:14:55;;;;;;;;;;;;;;;13.16;98.95;99965.53;4888881;29;19985;-85
2022/12/31 10:17:40;;;;;;;;;;;;;;;13.19;99.62;99964.41;4890621;29;19933;-86
2022/12/31 10:20:25;;;;;;;;;;;;;;;13.21;99.55;99967.75;4830790;29;19923;-86
2022/12/31 10:22:58;;;;;;;;;;;;;;;13.21;99.58;99970.44;4891070;29;20396;-86
2022/12/31 10:25:30;;;;;;;;;;;;;;;13.24;98.76;99962.13;4901253;29;19927;-86
2022/12/31 10:28:05;;;;;;;;;;;;;;;13.27;98.85;99955.69;4899996;29;19931;-85
2022/12/31 10:30:33;;;;;;;;;;;;;;;13.35;99.14;99950.44;4897931;29;20232;-86
2022/12/31 10:33:07;;;;;;;;;;;;;;;13.38;98.99;99961.66;4884010;29;19959;-86
2022/12/31 10:35:37;;;;;;;;;;;;;;;13.41;99.06;99948.00;4889211;29;19927;-86
2022/12/31 10:38:04;;;;;;;;;;;;;;;13.45;98.55;99948.53;4864515;29;20371;-86
2022/12/31 10:40:49;;;;;;;;;;;;;;;13.46;98.48;99943.06;4900963;29;19931;-86
2022/12/31 10:43:24;;;;;;;;;;;;;;;13.52;98.54;99948.78;4899037;29;19954;-86
2022/12/31 10:46:09;;;;;;;;;;;;;;;13.56;97.81;99950.13;4871578;29;19927;-86
2022/12/31 10:48:48;;;;;;;;;;;;;;;13.59;97.56;99948.00;4859476;29;19926;-84
2022/12/31 10:51:32;;;;;;;;;;;;;;;13.64;97.79;99952.91;4914094;29;19923;-84
2022/12/31 10:53:58;;;;;;;;;;;;;;;13.64;97.73;99951.06;4872465;29;20025;-83
2022/12/31 10:57:05;;;;;;;;;;;;;;;13.63;97.16;99948.53;4889214;29;19978;-83
2022/12/31 10:59:52;;;;;;;;;;;;;;;13.62;96.86;99941.53;4827388;29;20319;-83
2022/12/31 11:02:34;;;;;;;;;;;;;;;13.66;96.08;99949.09;4847784;29;19926;-83
2022/12/31 11:05:09;;;;;;;;;;;;;;;13.68;96.55;99954.25;4882549;29;19923;-83
2022/12/31 11:07:35;;;;;;;;;;;;;;;13.68;96.69;99940.91;4891649;29;19946;-83
2022/12/31 11:10:25;;;;;;;;;;;;;;;13.65;96.70;99931.38;4899762;29;19924;-83
2022/12/31 11:12:52;;;;;;;;;;;;;;;13.66;96.47;99934.88;4842247;29;19926;-83
2022/12/31 11:15:34;;;;;;;;;;;;;;;13.65;96.54;99935.88;4892653;29;19927;-83
2022/12/31 11:18:03;;;;;;;;;;;;;;;13.66;96.78;99933.06;4895042;29;19923;-84
2022/12/31 11:20:36;;;;;;;;;;;;;;;13.67;96.89;99933.91;4915356;29;20343;-83
2022/12/31 11:23:02;;;;;;;;;;;;;;;13.68;96.10;99922.22;4889394;29;19934;-84
2022/12/31 11:25:31;;;;;;;;;;;;;;;13.73;96.32;99924.44;4898779;29;19923;-84
2022/12/31 11:27:58;;;;;;;;;;;;;;;13.76;96.64;99919.63;4895487;29;19927;-84
2022/12/31 11:30:26;;;;;;;;;;;;;;;13.78;96.22;99917.66;4899332;29;19927;-83
2022/12/31 11:32:53;;;;;;;;;;;;;;;13.81;96.19;99919.16;4901457;29;19946;-83
2022/12/31 11:35:22;;;;;;;;;;;;;;;13.85;96.27;99932.06;4904492;29;20280;-84
2022/12/31 11:37:49;;;;;;;;;;;;;;;13.86;95.86;99924.88;4913453;29;19975;-84
2022/12/31 11:40:16;;;;;;;;;;;;;;;13.87;95.74;99929.25;4889778;29;20283;-83
2022/12/31 11:42:54;;;;;;;;;;;;;;;13.90;95.94;99936.94;4885772;29;19923;-84
2022/12/31 11:45:26;;;;;;;;;;;;;;;13.92;96.10;99931.44;4886453;29;19923;-84
2022/12/31 11:48:11;;;;;;;;;;;;;;;13.89;95.73;99924.56;4901482;29;19927;-84
2022/12/31 11:51:02;;;;;;;;;;;;;;;13.91;95.45;99925.25;4899471;29;19923;-83
2022/12/31 11:53:31;;;;;;;;;;;;;;;13.95;94.69;99926.63;4882072;29;20383;-84
2022/12/31 11:56:17;;;;;;;;;;;;;;;13.99;94.78;99919.13;4904492;29;19933;-84
2022/12/31 11:58:48;;;;;;;;;;;;;;;14.05;94.38;99921.22;4891138;29;20006;-84
2022/12/31 12:01:35;;;;;;;;;;;;;;;14.11;94.28;99917.91;4896265;29;19923;-84
2022/12/31 12:04:02;;;;;;;;;;;;;;;14.15;93.90;99921.09;4866386;29;19934;-84
2022/12/31 12:06:30;;;;;;;;;;;;;;;14.18;94.37;99926.97;4881197;29;20291;-83
2022/12/31 12:09:04;;;;;;;;;;;;;;;14.23;93.31;99921.16;4877207;29;19927;-84
2022/12/31 12:11:32;;;;;;;;;;;;;;;14.25;93.37;99922.69;4875442;29;20299;-84
2022/12/31 12:13:58;;;;;;;;;;;;;;;14.26;90.00;99919.00;4891382;29;20396;-84
2022/12/31 12:16:25;;;;;;;;;;;;;;;14.29;92.88;99917.84;4865228;29;19974;-84
2022/12/31 12:19:13;;;;;;;;;;;;;;;14.31;90.36;99915.84;4921636;29;19923;-84
2022/12/31 12:21:46;;;;;;;;;;;;;;;14.32;91.67;99914.84;4876902;29;19931;-84
2022/12/31 12:24:33;;;;;;;;;;;;;;;14.32;91.64;99915.72;4904971;29;20398;-84
2022/12/31 12:27:00;;;;;;;;;;;;;;;14.32;92.03;99917.53;4869314;29;19923;-84
2022/12/31 12:29:33;;;;;;;;;;;;;;;14.32;91.17;99907.69;4891474;29;20379;-84
2022/12/31 12:32:11;;;;;;;;;;;;;;;14.34;91.24;99895.00;4891122;29;19933;-84
2022/12/31 12:34:39;;;;;;;;;;;;;;;14.34;90.70;99899.50;4862483;29;19927;-84
2022/12/31 12:37:17;;;;;;;;;;;;;;;14.36;90.29;99897.53;4873418;29;20033;-84
2022/12/31 12:39:44;;;;;;;;;;;;;;;14.36;91.01;99897.53;4904601;29;19927;-84
2022/12/31 12:42:12;;;;;;;;;;;;;;;14.35;88.13;99895.84;4903479;29;19959;-84
2022/12/31 12:44:40;;;;;;;;;;;;;;;14.33;90.00;99890.66;4869095;29;19927;-84
2022/12/31 12:47:10;;;;;;;;;;;;;;;14.33;90.67;99889.84;4907117;29;19946;-84
2022/12/31 12:49:37;;;;;;;;;;;;;;;14.36;90.42;99886.00;4890690;29;19931;-85
2022/12/31 12:52:22;;;;;;;;;;;;;;;14.37;90.63;99879.66;4916600;29;19924;-84
2022/12/31 12:55:02;;;;;;;;;;;;;;;14.38;90.31;99890.19;4896174;29;20335;-84
2022/12/31 12:57:51;;;;;;;;;;;;;;;14.39;90.20;99893.69;4858087;29;20025;-84
2022/12/31 13:00:22;;;;;;;;;;;;;;;14.40;90.37;99880.19;4836773;29;19955;-85
2022/12/31 13:03:07;;;;;;;;;;;;;;;14.42;90.03;99885.34;4902576;29;20622;-86